Time;durP1;ratioP1;P1;durP2;ratioP2;P2;SDS_P1;SDS_P2;PMS_P1;PMS_P2;Temp;Humidity;BMP_temperature;BMP_pressure;BME280_temperature;BME280_humidity;BME280_pressure;Samples;Min_cycle;Max_cycle;Signal;HPM_P1;HPM_P2
2022/03/20 00:02:32;;;;;;;;;;;;;;;4.49;50.19;102383.31;5038305;28;1348;-92
2022/03/20 00:04:57;;;;;;;;;;;;;;;4.49;49.85;102377.03;5039149;28;1709;-92
2022/03/20 00:07:22;;;;;;;;;;;;;;;4.45;49.70;102384.72;5040787;28;1838;-92
2022/03/20 00:09:51;;;;;;;;;;;;;;;4.41;49.64;102385.31;5039125;28;1757;-92
2022/03/20 00:12:18;;;;;;;;;;;;;;;4.40;49.84;102370.91;5038914;28;1360;-93
2022/03/20 00:14:44;;;;;;;;;;;;;;;4.39;50.13;102374.66;5021521;28;1951;-91
2022/03/20 00:17:09;;;;;;;;;;;;;;;4.37;49.91;102375.88;5029184;28;1476;-92
2022/03/20 00:19:34;;;;;;;;;;;;;;;4.27;50.11;102364.50;5042218;28;1321;-92
2022/03/20 00:22:01;;;;;;;;;;;;;;;4.30;50.07;102353.28;5021793;28;1507;-92
2022/03/20 00:24:26;;;;;;;;;;;;;;;4.30;50.17;102356.00;5038566;28;858;-93
2022/03/20 00:26:56;;;;;;;;;;;;;;;4.25;49.71;102350.31;5038638;28;1322;-92
2022/03/20 00:29:31;;;;;;;;;;;;;;;4.24;49.78;102354.91;5021814;28;1747;-92
2022/03/20 00:31:57;;;;;;;;;;;;;;;4.29;50.13;102354.31;5024495;28;1498;-92
2022/03/20 00:34:22;;;;;;;;;;;;;;;4.26;49.53;102346.56;5020401;28;1890;-92
2022/03/20 00:36:47;;;;;;;;;;;;;;;4.21;49.73;102346.31;5035479;28;1415;-92
2022/03/20 00:39:13;;;;;;;;;;;;;;;4.15;50.34;102335.22;5037937;28;1458;-92
2022/03/20 00:41:38;;;;;;;;;;;;;;;4.16;50.11;102331.50;5038249;28;1455;-92
2022/03/20 00:44:03;;;;;;;;;;;;;;;4.17;50.58;102322.28;5042796;28;1866;-92
2022/03/20 00:46:29;;;;;;;;;;;;;;;4.10;50.25;102334.94;5026131;28;1481;-92
2022/03/20 00:48:54;;;;;;;;;;;;;;;4.06;49.91;102327.41;5041378;28;1491;-92
2022/03/20 00:51:20;;;;;;;;;;;;;;;4.09;49.22;102327.84;5037160;28;1385;-93
2022/03/20 00:53:45;;;;;;;;;;;;;;;4.10;49.97;102331.41;5020867;28;1957;-93
2022/03/20 00:56:12;;;;;;;;;;;;;;;4.04;50.27;102330.31;5037829;28;1751;-92
2022/03/20 00:58:37;;;;;;;;;;;;;;;4.05;50.36;102326.56;5017968;28;1366;-93
2022/03/20 01:01:04;;;;;;;;;;;;;;;4.03;49.31;102323.22;5043705;28;1572;-92
2022/03/20 01:03:34;;;;;;;;;;;;;;;3.93;50.05;102317.25;5037875;28;1661;-92
2022/03/20 01:05:59;;;;;;;;;;;;;;;3.80;50.09;102320.69;5036401;28;1491;-92
2022/03/20 01:08:28;;;;;;;;;;;;;;;3.74;50.31;102313.28;5037573;28;1793;-92
2022/03/20 01:10:53;;;;;;;;;;;;;;;3.48;51.92;102315.72;5037660;28;1492;-92
2022/03/20 01:13:18;;;;;;;;;;;;;;;3.31;52.30;102316.97;5021409;28;1483;-92
2022/03/20 01:15:43;;;;;;;;;;;;;;;3.26;53.07;102311.25;5020388;28;1973;-92
2022/03/20 01:18:08;;;;;;;;;;;;;;;3.16;54.23;102306.13;5037343;28;1196;-92
2022/03/20 01:20:34;;;;;;;;;;;;;;;2.88;54.83;102302.41;5037337;28;1747;-92
2022/03/20 01:23:02;;;;;;;;;;;;;;;2.85;55.78;102300.91;5037075;28;1618;-92
2022/03/20 01:25:27;;;;;;;;;;;;;;;2.75;56.88;102297.63;5037630;28;1296;-92
2022/03/20 01:27:52;;;;;;;;;;;;;;;2.48;58.24;102296.38;5021378;28;1506;-92
2022/03/20 01:30:18;;;;;;;;;;;;;;;2.51;57.81;102300.59;5020301;28;1368;-93
2022/03/20 01:32:43;;;;;;;;;;;;;;;2.56;57.88;102290.91;5037507;28;1376;-92
2022/03/20 01:35:09;;;;;;;;;;;;;;;2.48;55.48;102282.88;5054554;28;1961;-93
2022/03/20 01:37:35;;;;;;;;;;;;;;;2.86;53.34;102272.00;5041063;28;1650;-92
2022/03/20 01:40:00;;;;;;;;;;;;;;;3.17;51.42;102272.63;5024117;28;1376;-92
2022/03/20 01:42:25;;;;;;;;;;;;;;;3.41;49.30;102266.06;5024726;28;1455;-93
2022/03/20 01:44:50;;;;;;;;;;;;;;;3.54;50.53;102259.97;5021240;28;1180;-92
2022/03/20 01:47:16;;;;;;;;;;;;;;;3.61;49.38;102261.72;5036844;28;1385;-92
2022/03/20 01:49:42;;;;;;;;;;;;;;;3.59;48.90;102261.06;5036804;28;1803;-93
2022/03/20 01:52:11;;;;;;;;;;;;;;;3.58;49.15;102258.53;5036534;28;1643;-93
2022/03/20 01:54:41;;;;;;;;;;;;;;;3.65;47.47;102260.31;5023426;28;1902;-93
2022/03/20 01:57:07;;;;;;;;;;;;;;;3.70;47.73;102254.31;5035914;28;1301;-93
2022/03/20 01:59:36;;;;;;;;;;;;;;;3.68;47.60;102248.25;5036543;28;1433;-93
2022/03/20 02:02:28;;;;;;;;;;;;;;;3.57;50.02;102259.59;5032537;28;1538;-93
2022/03/20 02:04:53;;;;;;;;;;;;;;;3.37;51.26;102248.53;5032258;28;1417;-93
2022/03/20 02:07:20;;;;;;;;;;;;;;;3.21;51.37;102256.88;5025131;28;1467;-93
2022/03/20 02:09:45;;;;;;;;;;;;;;;3.06;52.51;102251.50;5041602;28;1471;-92
2022/03/20 02:12:18;;;;;;;;;;;;;;;2.82;52.68;102246.34;5036046;28;1432;-93
2022/03/20 02:14:43;;;;;;;;;;;;;;;2.70;54.30;102242.44;5019666;28;1894;-93
2022/03/20 02:17:11;;;;;;;;;;;;;;;2.49;54.25;102240.47;5040109;28;1412;-93
2022/03/20 02:19:37;;;;;;;;;;;;;;;2.41;54.19;102237.84;5054121;28;1379;-93
2022/03/20 02:22:04;;;;;;;;;;;;;;;2.22;56.19;102236.50;5035495;28;1341;-93
2022/03/20 02:24:40;;;;;;;;;;;;;;;2.06;57.40;102231.25;5028095;28;1480;-93
2022/03/20 02:27:12;;;;;;;;;;;;;;;2.08;57.86;102218.41;5036015;28;1448;-93
2022/03/20 02:29:39;;;;;;;;;;;;;;;2.03;57.20;102227.06;5036671;28;1559;-92
2022/03/20 02:32:06;;;;;;;;;;;;;;;1.99;59.35;102214.09;5035886;28;1511;-92
2022/03/20 02:34:31;;;;;;;;;;;;;;;1.95;58.04;102221.75;5019447;28;1898;-93
2022/03/20 02:36:57;;;;;;;;;;;;;;;1.93;57.18;102214.84;5053456;28;1739;-93
2022/03/20 02:39:22;;;;;;;;;;;;;;;1.98;57.94;102210.56;5034793;28;1488;-93
2022/03/20 02:41:55;;;;;;;;;;;;;;;2.17;56.47;102212.75;5034343;28;1581;-93
2022/03/20 02:44:46;;;;;;;;;;;;;;;2.22;56.75;102204.09;5056328;28;1336;-93
2022/03/20 02:47:12;;;;;;;;;;;;;;;2.17;57.41;102201.94;5045372;28;1482;-93
2022/03/20 02:49:37;;;;;;;;;;;;;;;2.10;56.45;102202.88;5016493;28;1133;-93
2022/03/20 02:52:03;;;;;;;;;;;;;;;2.02;56.83;102202.94;5024026;28;1407;-93
2022/03/20 02:54:28;;;;;;;;;;;;;;;1.79;58.37;102202.94;5019300;28;1890;-93
2022/03/20 02:56:53;;;;;;;;;;;;;;;1.66;59.07;102200.88;5035358;28;1364;-93
2022/03/20 02:59:18;;;;;;;;;;;;;;;1.63;57.84;102195.81;5020905;28;1424;-93
2022/03/20 03:01:50;;;;;;;;;;;;;;;1.67;59.22;102197.16;5040679;28;1698;-93
2022/03/20 03:04:15;;;;;;;;;;;;;;;1.77;59.17;102191.53;5038313;28;1432;-93
2022/03/20 03:06:40;;;;;;;;;;;;;;;1.69;59.61;102186.19;5037351;28;1721;-93
2022/03/20 03:11:49;;;;;;;;;;;;;;;1.52;59.57;102182.78;5043275;28;1789;-93
2022/03/20 03:17:04;;;;;;;;;;;;;;;1.38;59.40;102173.59;5040126;28;1792;-92
2022/03/20 03:19:29;;;;;;;;;;;;;;;1.68;58.66;102173.72;5041367;28;1169;-93
2022/03/20 03:22:14;;;;;;;;;;;;;;;1.89;58.20;102169.28;5028015;28;1495;-93
2022/03/20 03:25:04;;;;;;;;;;;;;;;2.03;56.01;102169.53;5036372;28;1757;-93
2022/03/20 03:27:29;;;;;;;;;;;;;;;2.15;55.69;102158.06;5031468;28;1699;-93
2022/03/20 03:29:54;;;;;;;;;;;;;;;2.26;55.15;102163.03;5036187;28;1660;-92
2022/03/20 03:32:19;;;;;;;;;;;;;;;2.38;52.96;102154.47;5038922;28;1515;-93
2022/03/20 03:37:29;;;;;;;;;;;;;;;2.64;50.91;102147.53;5043144;28;1170;-92
2022/03/20 03:39:55;;;;;;;;;;;;;;;2.63;50.19;102162.09;5023202;28;1383;-92
2022/03/20 03:42:21;;;;;;;;;;;;;;;2.65;51.03;102138.41;5039322;28;1440;-93
2022/03/20 03:44:54;;;;;;;;;;;;;;;2.52;51.44;102132.84;5022446;28;1805;-92
2022/03/20 03:47:19;;;;;;;;;;;;;;;2.59;51.63;102136.44;5039228;28;1788;-93
2022/03/20 03:49:48;;;;;;;;;;;;;;;2.73;49.39;102132.03;5038765;28;1527;-92
2022/03/20 03:52:14;;;;;;;;;;;;;;;2.87;49.05;102119.53;5039292;28;1666;-92
2022/03/20 03:54:43;;;;;;;;;;;;;;;2.98;48.11;102127.13;5022634;28;1965;-93
2022/03/20 03:57:08;;;;;;;;;;;;;;;3.02;49.02;102123.88;5038915;28;1381;-93
2022/03/20 03:59:33;;;;;;;;;;;;;;;3.03;48.93;102119.31;5039083;28;1642;-93
2022/03/20 04:02:00;;;;;;;;;;;;;;;3.05;49.08;102114.56;5038814;28;1453;-93
2022/03/20 04:04:25;;;;;;;;;;;;;;;3.04;49.18;102110.16;5026080;28;1480;-92
2022/03/20 04:06:50;;;;;;;;;;;;;;;2.98;49.70;102108.19;5033530;28;1421;-92
2022/03/20 04:09:16;;;;;;;;;;;;;;;2.90;49.29;102105.63;5035217;28;1105;-93
2022/03/20 04:11:42;;;;;;;;;;;;;;;2.88;50.89;102108.53;5032606;28;1768;-93
2022/03/20 04:14:31;;;;;;;;;;;;;;;2.79;50.87;102116.94;5018355;28;1898;-93
2022/03/20 04:16:56;;;;;;;;;;;;;;;2.70;51.52;102129.75;5035530;28;1231;-92
2022/03/20 04:19:21;;;;;;;;;;;;;;;2.63;52.06;102126.13;5037970;28;1352;-92
2022/03/20 04:21:48;;;;;;;;;;;;;;;2.56;52.73;102126.00;5038877;28;1335;-92
2022/03/20 04:24:13;;;;;;;;;;;;;;;2.47;52.35;102119.03;5015815;28;1453;-93
2022/03/20 04:26:38;;;;;;;;;;;;;;;2.47;51.98;102137.94;5038036;28;1503;-93
2022/03/20 04:29:03;;;;;;;;;;;;;;;2.51;52.30;102131.16;5037414;28;1448;-93
2022/03/20 04:34:14;;;;;;;;;;;;;;;2.43;52.97;102135.81;5106849;28;1905;-89
2022/03/20 04:37:16;;;;;;;;;;;;;;;2.36;53.98;102135.72;5086400;28;2136;-88
2022/03/20 04:39:53;;;;;;;;;;;;;;;2.30;53.54;102125.66;5109738;28;1450;-89
2022/03/20 04:42:19;;;;;;;;;;;;;;;2.36;53.87;102103.31;5092612;28;1835;-89
2022/03/20 04:44:52;;;;;;;;;;;;;;;2.12;55.89;102109.00;5087061;28;1681;-89
2022/03/20 04:59:29;;;;;;;;;;;;;;;1.65;56.96;102093.94;5103763;28;1359;-89
2022/03/20 05:02:03;;;;;;;;;;;;;;;1.55;57.25;102096.03;5097478;28;1478;-89
2022/03/20 05:04:29;;;;;;;;;;;;;;;1.53;57.25;102084.63;5085344;28;1727;-89
2022/03/20 05:07:01;;;;;;;;;;;;;;;1.68;57.54;102081.94;5091861;28;1826;-89
2022/03/20 05:15:05;;;;;;;;;;;;;;;1.94;56.02;102070.72;5115301;28;1893;-89
2022/03/20 05:17:30;;;;;;;;;;;;;;;2.01;56.04;102068.94;5097215;28;1744;-89
2022/03/20 05:19:55;;;;;;;;;;;;;;;2.03;55.02;102053.41;5097396;28;1367;-89
2022/03/20 05:22:26;;;;;;;;;;;;;;;2.12;55.46;102054.97;5097845;28;1353;-89
2022/03/20 05:25:24;;;;;;;;;;;;;;;2.21;54.03;102061.97;5094489;28;1355;-88
2022/03/20 05:28:12;;;;;;;;;;;;;;;2.30;54.08;102057.28;5032726;28;1264;-89
2022/03/20 05:33:44;;;;;;;;;;;;;;;2.39;54.11;102059.69;5097550;28;1963;-89
2022/03/20 05:36:09;;;;;;;;;;;;;;;2.38;54.17;102046.38;5096841;28;1231;-89
2022/03/20 05:38:37;;;;;;;;;;;;;;;2.37;54.26;102050.09;5097038;28;1288;-89
2022/03/20 05:43:53;;;;;;;;;;;;;;;2.49;52.82;102052.13;5102271;28;663;-89
2022/03/20 05:46:21;;;;;;;;;;;;;;;2.52;53.57;102048.22;5088692;28;1384;-89
2022/03/20 05:48:47;;;;;;;;;;;;;;;2.51;53.75;102052.78;5114742;28;1545;-89
2022/03/20 05:51:15;;;;;;;;;;;;;;;2.50;53.66;102058.34;5081712;28;1349;-90
2022/03/20 05:54:00;;;;;;;;;;;;;;;2.54;53.06;102051.56;5079120;28;1422;-89
2022/03/20 05:59:12;;;;;;;;;;;;;;;2.51;52.60;102066.28;5108605;28;1445;-90
2022/03/20 06:01:37;;;;;;;;;;;;;;;2.60;52.50;102065.16;5096664;28;1748;-90
2022/03/20 06:04:05;;;;;;;;;;;;;;;2.63;52.94;102069.34;5107969;28;1638;-90
2022/03/20 06:06:48;;;;;;;;;;;;;;;2.64;52.83;102071.00;5090542;28;1403;-90
2022/03/20 06:40:54;;;;;;;;;;;;;;;3.20;51.35;102058.50;4975314;28;1389;-89
2022/03/20 06:46:54;;;;;;;;;;;;;;;3.35;50.07;102048.44;5093083;28;1298;-89
2022/03/20 06:49:53;;;;;;;;;;;;;;;3.42;50.91;102051.19;5059402;28;1583;-89
2022/03/20 06:55:41;;;;;;;;;;;;;;;3.57;49.77;102048.41;5105207;28;1971;-89
2022/03/20 06:58:08;;;;;;;;;;;;;;;3.67;50.23;102054.31;5095990;28;1219;-88
2022/03/20 07:01:06;;;;;;;;;;;;;;;3.69;51.16;102049.53;5096525;28;1207;-89
2022/03/20 07:03:32;;;;;;;;;;;;;;;3.74;51.11;102056.03;5113440;28;1263;-89
2022/03/20 07:09:50;;;;;;;;;;;;;;;3.88;51.40;102058.84;5055575;28;1017;-89
2022/03/20 07:12:21;;;;;;;;;;;;;;;3.96;51.17;102054.09;5017970;28;1284;-89
2022/03/20 07:14:46;;;;;;;;;;;;;;;4.06;50.31;102053.75;5038720;28;1910;-89
2022/03/20 07:17:14;;;;;;;;;;;;;;;4.10;50.34;102050.41;5038308;28;1626;-89
2022/03/20 07:19:43;;;;;;;;;;;;;;;4.11;50.83;102048.56;5093234;28;1250;-89
2022/03/20 07:22:11;;;;;;;;;;;;;;;4.13;50.36;102050.03;5099917;28;1514;-89
2022/03/20 07:24:37;;;;;;;;;;;;;;;4.24;49.87;102045.94;5095337;28;1486;-89
2022/03/20 07:30:13;;;;;;;;;;;;;;;4.32;50.12;102042.22;5097788;28;583;-89
2022/03/20 07:32:41;;;;;;;;;;;;;;;4.36;49.87;102035.31;5092636;28;1600;-89
2022/03/20 07:35:09;;;;;;;;;;;;;;;4.38;50.43;102036.81;5099341;28;1906;-90
2022/03/20 07:37:34;;;;;;;;;;;;;;;4.40;49.99;102033.91;5099501;28;1306;-88
2022/03/20 07:40:05;;;;;;;;;;;;;;;4.43;50.24;102026.19;5092202;28;1514;-88
2022/03/20 07:42:34;;;;;;;;;;;;;;;4.46;50.20;102027.66;5089177;28;1362;-87
2022/03/20 07:45:03;;;;;;;;;;;;;;;4.52;51.45;102024.97;5100377;28;1333;-87
2022/03/20 07:47:28;;;;;;;;;;;;;;;4.65;51.18;102009.78;5100453;28;1132;-87
2022/03/20 07:49:53;;;;;;;;;;;;;;;4.67;50.98;102013.97;5118506;28;792;-86
2022/03/20 07:52:19;;;;;;;;;;;;;;;4.67;50.24;102010.44;5100091;28;1271;-86
2022/03/20 07:54:45;;;;;;;;;;;;;;;4.72;50.07;102010.63;5099628;28;1975;-86
2022/03/20 07:57:10;;;;;;;;;;;;;;;4.76;50.34;102011.91;5099732;28;1255;-87
2022/03/20 07:59:36;;;;;;;;;;;;;;;4.80;49.86;102021.28;5099963;28;1151;-87
2022/03/20 08:02:06;;;;;;;;;;;;;;;4.81;50.66;102010.25;5099601;28;1283;-88
2022/03/20 08:04:38;;;;;;;;;;;;;;;4.85;50.97;101999.81;5099727;28;1350;-86
2022/03/20 08:07:07;;;;;;;;;;;;;;;4.88;50.15;102002.09;5100259;28;1337;-87
2022/03/20 08:09:32;;;;;;;;;;;;;;;4.95;50.77;101998.38;5099384;28;1246;-86
2022/03/20 08:11:58;;;;;;;;;;;;;;;5.01;50.22;101990.44;5099831;28;1255;-86
2022/03/20 08:14:23;;;;;;;;;;;;;;;5.04;50.32;101987.31;5098855;28;1964;-87
2022/03/20 08:16:49;;;;;;;;;;;;;;;5.11;49.64;101988.97;5116956;28;860;-86
2022/03/20 08:19:16;;;;;;;;;;;;;;;5.13;49.72;101989.63;5098754;28;1317;-87
2022/03/20 08:21:42;;;;;;;;;;;;;;;5.18;50.12;101995.28;5098707;28;1354;-86
2022/03/20 08:24:08;;;;;;;;;;;;;;;5.24;49.85;101989.00;5098126;28;1361;-85
2022/03/20 08:26:33;;;;;;;;;;;;;;;5.29;49.97;101989.19;5078144;28;1337;-85
2022/03/20 08:28:59;;;;;;;;;;;;;;;5.31;50.16;101987.13;5081051;28;1467;-86
2022/03/20 08:31:26;;;;;;;;;;;;;;;5.35;49.85;101987.53;5098245;28;1353;-86
2022/03/20 08:33:51;;;;;;;;;;;;;;;5.40;50.20;101993.16;5094259;28;1964;-85
2022/03/20 08:36:16;;;;;;;;;;;;;;;5.43;50.26;101995.47;5094866;28;971;-85
2022/03/20 08:38:42;;;;;;;;;;;;;;;5.47;49.74;101998.59;5094905;28;796;-86
2022/03/20 08:41:07;;;;;;;;;;;;;;;5.56;49.18;102008.19;5094742;28;880;-86
2022/03/20 08:43:32;;;;;;;;;;;;;;;5.58;49.51;101997.94;5094159;28;1283;-86
2022/03/20 08:45:57;;;;;;;;;;;;;;;5.60;48.98;102002.13;5097915;28;1264;-86
2022/03/20 08:48:22;;;;;;;;;;;;;;;5.60;49.32;101996.72;5096803;28;1492;-85
2022/03/20 08:50:48;;;;;;;;;;;;;;;5.71;49.85;102006.91;5097950;28;1368;-86
2022/03/20 08:53:15;;;;;;;;;;;;;;;5.77;49.51;102007.13;5097546;28;1204;-86
2022/03/20 08:55:40;;;;;;;;;;;;;;;5.80;48.62;102006.69;5097753;28;1909;-86
2022/03/20 08:58:06;;;;;;;;;;;;;;;5.83;48.88;101998.13;5097533;28;1302;-85
2022/03/20 09:00:33;;;;;;;;;;;;;;;5.87;48.61;101989.31;5088298;28;1230;-85
2022/03/20 09:02:58;;;;;;;;;;;;;;;5.93;49.27;101993.09;5080510;28;1358;-86
2022/03/20 09:05:23;;;;;;;;;;;;;;;5.93;49.06;101990.41;5077181;28;1254;-86
2022/03/20 09:07:49;;;;;;;;;;;;;;;5.99;48.73;101992.25;5083061;28;1258;-85
2022/03/20 09:10:15;;;;;;;;;;;;;;;6.05;48.48;101983.22;5083024;28;1365;-86
2022/03/20 09:12:42;;;;;;;;;;;;;;;6.12;48.80;101986.78;5083616;28;1598;-86
2022/03/20 09:15:12;;;;;;;;;;;;;;;6.13;48.42;101980.28;5093252;28;1960;-86
2022/03/20 09:20:28;;;;;;;;;;;;;;;6.21;47.74;101971.88;5106783;28;1268;-86
2022/03/20 09:22:53;;;;;;;;;;;;;;;6.25;48.22;101975.00;5078737;28;1376;-86
2022/03/20 09:25:19;;;;;;;;;;;;;;;6.30;48.94;101976.00;5079653;28;1269;-86
2022/03/20 09:27:44;;;;;;;;;;;;;;;6.31;49.02;101972.25;5076336;28;1225;-85
2022/03/20 09:30:10;;;;;;;;;;;;;;;6.35;48.44;101969.94;5090735;28;1245;-86
2022/03/20 09:32:35;;;;;;;;;;;;;;;6.39;48.57;101976.59;5093782;28;1308;-86
2022/03/20 09:35:00;;;;;;;;;;;;;;;6.39;49.29;101963.84;5096576;28;1893;-86
2022/03/20 09:37:26;;;;;;;;;;;;;;;6.43;49.28;101967.81;5088861;28;1335;-86
2022/03/20 09:39:51;;;;;;;;;;;;;;;6.49;48.62;101974.25;5104339;28;1304;-86
2022/03/20 09:42:19;;;;;;;;;;;;;;;6.53;49.36;101963.78;5105422;28;1616;-85
2022/03/20 09:44:45;;;;;;;;;;;;;;;6.66;48.39;101969.13;5094577;28;904;-86
2022/03/20 09:47:16;;;;;;;;;;;;;;;6.68;47.30;101965.16;5094713;28;1058;-85
2022/03/20 09:49:44;;;;;;;;;;;;;;;6.73;48.67;101965.31;5076698;28;1335;-85
2022/03/20 09:52:09;;;;;;;;;;;;;;;6.76;48.65;101961.34;5100293;28;1477;-85
2022/03/20 09:54:34;;;;;;;;;;;;;;;6.82;48.05;101963.16;5096562;28;1960;-85
2022/03/20 09:57:04;;;;;;;;;;;;;;;6.88;47.18;101961.47;5105945;28;1497;-86
2022/03/20 09:59:29;;;;;;;;;;;;;;;6.88;47.01;101961.47;5087173;28;1539;-86
2022/03/20 10:02:00;;;;;;;;;;;;;;;6.92;48.16;101960.78;5093569;28;1340;-87
2022/03/20 10:04:25;;;;;;;;;;;;;;;6.93;47.74;101965.19;5094793;28;1363;-85
2022/03/20 10:06:50;;;;;;;;;;;;;;;6.95;46.89;101951.38;5084784;28;1681;-86
2022/03/20 10:09:16;;;;;;;;;;;;;;;7.00;46.72;101946.91;5097183;28;1226;-85
2022/03/20 10:11:49;;;;;;;;;;;;;;;7.13;47.08;101946.00;5114891;28;1216;-86
2022/03/20 10:14:15;;;;;;;;;;;;;;;7.17;46.73;101948.03;5087392;28;1964;-86
2022/03/20 10:16:42;;;;;;;;;;;;;;;7.17;46.65;101945.31;5091290;28;1601;-86
2022/03/20 10:19:22;;;;;;;;;;;;;;;7.18;46.75;101957.88;5076601;28;1179;-86
2022/03/20 10:21:53;;;;;;;;;;;;;;;7.23;47.38;101947.13;5096048;28;1697;-86
2022/03/20 10:24:19;;;;;;;;;;;;;;;7.30;47.05;101959.88;5114766;28;998;-86
2022/03/20 10:26:44;;;;;;;;;;;;;;;7.37;46.12;101941.56;5096645;28;1227;-85
2022/03/20 10:29:14;;;;;;;;;;;;;;;7.43;46.41;101946.13;5096318;28;1321;-86
2022/03/20 10:31:46;;;;;;;;;;;;;;;7.46;46.75;101945.69;5079696;28;1411;-86
2022/03/20 10:34:11;;;;;;;;;;;;;;;7.49;46.71;101935.16;5076011;28;1893;-86
2022/03/20 10:36:37;;;;;;;;;;;;;;;7.56;45.85;101944.13;5088906;28;1301;-86
2022/03/20 10:39:02;;;;;;;;;;;;;;;7.59;46.18;101930.03;5094059;28;1042;-87
2022/03/20 10:41:34;;;;;;;;;;;;;;;7.63;46.54;101929.56;5111666;28;1417;-86
2022/03/20 10:44:00;;;;;;;;;;;;;;;7.59;46.12;101913.66;5095599;28;1687;-86
2022/03/20 10:46:25;;;;;;;;;;;;;;;7.69;46.43;101904.97;5095947;28;1309;-86
2022/03/20 10:48:52;;;;;;;;;;;;;;;7.74;45.48;101901.59;5096298;28;869;-86
2022/03/20 10:51:40;;;;;;;;;;;;;;;7.86;45.00;101894.28;5085189;28;1546;-86
2022/03/20 10:54:09;;;;;;;;;;;;;;;7.90;45.95;101899.06;5099694;28;1975;-86
2022/03/20 10:56:36;;;;;;;;;;;;;;;7.96;46.63;101886.41;5108386;28;1295;-86
2022/03/20 10:59:14;;;;;;;;;;;;;;;8.02;45.80;101887.38;5093723;28;1054;-86
2022/03/20 11:01:40;;;;;;;;;;;;;;;8.14;46.44;101891.84;5095899;28;1540;-86
2022/03/20 11:04:06;;;;;;;;;;;;;;;8.19;45.01;101889.22;5092890;28;1592;-87
2022/03/20 11:06:31;;;;;;;;;;;;;;;8.25;45.49;101895.69;5099597;28;1634;-87
2022/03/20 11:08:56;;;;;;;;;;;;;;;8.32;44.94;101907.34;5091748;28;1662;-86
2022/03/20 11:11:23;;;;;;;;;;;;;;;8.51;44.16;101913.56;5086928;28;1641;-86
2022/03/20 11:13:48;;;;;;;;;;;;;;;8.53;44.98;101915.00;5095633;28;1272;-86
2022/03/20 11:16:14;;;;;;;;;;;;;;;8.53;45.26;101908.72;5094954;28;1984;-87
2022/03/20 11:18:41;;;;;;;;;;;;;;;8.54;45.14;101905.78;5084839;28;1663;-87
2022/03/20 11:21:07;;;;;;;;;;;;;;;8.52;44.86;101905.16;5111662;28;1344;-87
2022/03/20 11:23:33;;;;;;;;;;;;;;;8.56;44.90;101905.53;5093594;28;1634;-86
2022/03/20 11:25:59;;;;;;;;;;;;;;;8.59;45.16;101900.44;5112404;28;1687;-86
2022/03/20 11:28:25;;;;;;;;;;;;;;;8.63;45.52;101890.72;5095939;28;1372;-86
2022/03/20 11:30:51;;;;;;;;;;;;;;;8.74;44.44;101886.38;5103127;28;1090;-87
2022/03/20 11:33:20;;;;;;;;;;;;;;;8.84;44.97;101893.97;5093018;28;1271;-86
2022/03/20 11:35:45;;;;;;;;;;;;;;;8.85;44.94;101892.88;5102129;28;1897;-86
2022/03/20 11:38:12;;;;;;;;;;;;;;;8.86;44.00;101889.94;5088542;28;1601;-86
2022/03/20 11:40:41;;;;;;;;;;;;;;;8.92;43.53;101893.63;5095636;28;1166;-86
2022/03/20 11:43:16;;;;;;;;;;;;;;;8.97;44.98;101883.66;5094981;28;1354;-86
2022/03/20 11:46:01;;;;;;;;;;;;;;;9.00;44.63;101885.94;5095358;28;1183;-86
2022/03/20 11:48:27;;;;;;;;;;;;;;;9.16;44.54;101878.94;5089415;28;1614;-86
2022/03/20 11:50:52;;;;;;;;;;;;;;;9.20;44.18;101888.28;5096095;28;1000;-86
2022/03/20 11:53:25;;;;;;;;;;;;;;;9.21;44.79;101881.75;5098961;28;1287;-86
2022/03/20 11:55:51;;;;;;;;;;;;;;;9.26;45.33;101884.63;5098587;28;1893;-87
2022/03/20 11:58:16;;;;;;;;;;;;;;;9.31;43.49;101884.75;5084998;28;1250;-86
2022/03/20 12:00:43;;;;;;;;;;;;;;;9.46;43.71;101863.22;5088895;28;1171;-86
2022/03/20 12:03:15;;;;;;;;;;;;;;;9.53;43.85;101868.53;5098331;28;1250;-87
2022/03/20 12:06:01;;;;;;;;;;;;;;;9.53;42.88;101871.28;5098801;28;1377;-86
2022/03/20 12:08:35;;;;;;;;;;;;;;;9.60;43.20;101871.16;5092091;28;1332;-86
2022/03/20 12:11:21;;;;;;;;;;;;;;;9.66;43.02;101865.56;5096796;28;937;-86
2022/03/20 12:13:55;;;;;;;;;;;;;;;9.73;43.95;101862.69;5103538;28;1773;-86
2022/03/20 12:16:39;;;;;;;;;;;;;;;9.82;43.71;101853.03;5098575;28;1890;-86
2022/03/20 12:19:05;;;;;;;;;;;;;;;9.92;42.72;101858.72;5081938;28;1609;-86
2022/03/20 12:21:49;;;;;;;;;;;;;;;10.02;42.42;101856.19;5078095;28;1357;-86
2022/03/20 12:24:33;;;;;;;;;;;;;;;10.11;41.82;101842.94;5095882;28;1481;-86
2022/03/20 12:27:18;;;;;;;;;;;;;;;10.19;42.21;101846.16;5098294;28;1199;-86
2022/03/20 12:29:43;;;;;;;;;;;;;;;10.26;43.29;101845.16;5097756;28;1700;-86
2022/03/20 12:32:12;;;;;;;;;;;;;;;10.32;42.21;101846.91;5116760;28;1312;-86
2022/03/20 12:34:38;;;;;;;;;;;;;;;10.36;41.52;101843.44;5116254;28;1902;-86
2022/03/20 12:37:22;;;;;;;;;;;;;;;10.42;43.35;101833.41;5094608;28;1458;-86
2022/03/20 12:39:48;;;;;;;;;;;;;;;10.47;42.34;101841.69;5080564;28;1556;-86
2022/03/20 12:42:14;;;;;;;;;;;;;;;10.54;43.29;101829.53;5115905;28;1697;-86
2022/03/20 12:44:43;;;;;;;;;;;;;;;10.65;42.64;101825.03;5087276;28;1225;-87
2022/03/20 12:47:08;;;;;;;;;;;;;;;10.70;40.78;101829.78;5077755;28;1331;-86
2022/03/20 12:49:34;;;;;;;;;;;;;;;10.72;41.27;101825.69;5082270;28;1503;-87
2022/03/20 12:51:59;;;;;;;;;;;;;;;10.75;40.84;101822.47;5098947;28;1284;-86
2022/03/20 12:54:24;;;;;;;;;;;;;;;10.83;41.41;101822.06;5085364;28;1902;-86
2022/03/20 12:56:53;;;;;;;;;;;;;;;10.90;40.23;101832.84;5082399;28;1277;-86
2022/03/20 12:59:20;;;;;;;;;;;;;;;10.98;41.35;101818.72;5090361;28;1285;-86
2022/03/20 13:01:45;;;;;;;;;;;;;;;11.13;40.86;101816.22;5100977;28;1392;-87
2022/03/20 13:04:14;;;;;;;;;;;;;;;11.24;40.46;101811.69;5083183;28;1513;-86
2022/03/20 13:06:39;;;;;;;;;;;;;;;11.28;39.44;101813.69;5077596;28;1211;-87
2022/03/20 13:09:09;;;;;;;;;;;;;;;11.33;40.13;101810.19;5094893;28;1811;-85
2022/03/20 13:11:52;;;;;;;;;;;;;;;11.49;39.46;101817.53;5114578;28;1710;-87
2022/03/20 13:14:17;;;;;;;;;;;;;;;11.67;39.67;101810.88;5084116;28;1961;-87
2022/03/20 13:16:49;;;;;;;;;;;;;;;11.83;38.95;101810.00;5095545;28;975;-86
2022/03/20 13:19:23;;;;;;;;;;;;;;;12.32;38.59;101804.50;5095228;28;985;-86
2022/03/20 13:21:49;;;;;;;;;;;;;;;16.35;33.73;101795.38;5102697;28;1287;-86
2022/03/20 13:24:25;;;;;;;;;;;;;;;21.05;25.51;101792.13;5096926;28;1317;-86
2022/03/20 13:27:00;;;;;;;;;;;;;;;23.04;23.64;101772.88;5097427;28;1219;-87
2022/03/20 13:29:26;;;;;;;;;;;;;;;22.57;22.26;101770.00;5077432;28;1293;-87
2022/03/20 13:31:57;;;;;;;;;;;;;;;22.50;23.26;101772.47;5090589;28;1368;-86
2022/03/20 13:34:23;;;;;;;;;;;;;;;21.86;22.20;101775.06;5096638;28;1889;-86
2022/03/20 13:36:48;;;;;;;;;;;;;;;21.82;21.98;101765.69;5080608;28;1535;-86
2022/03/20 13:39:13;;;;;;;;;;;;;;;21.42;22.28;101767.75;5077255;28;1312;-87
2022/03/20 13:41:43;;;;;;;;;;;;;;;20.67;23.77;101761.13;5076706;28;1308;-87
2022/03/20 13:44:11;;;;;;;;;;;;;;;20.51;23.81;101759.03;5085914;28;1363;-87
2022/03/20 13:46:36;;;;;;;;;;;;;;;20.21;24.54;101758.66;5081611;28;1352;-86
2022/03/20 13:49:03;;;;;;;;;;;;;;;20.16;24.71;101749.63;5102560;28;1511;-86
2022/03/20 13:51:29;;;;;;;;;;;;;;;19.37;26.43;101747.16;5097002;28;1307;-86
2022/03/20 13:54:12;;;;;;;;;;;;;;;20.42;24.58;101744.25;5096470;28;1226;-86
2022/03/20 13:56:37;;;;;;;;;;;;;;;20.61;24.70;101753.22;5096646;28;1426;-86
2022/03/20 13:59:04;;;;;;;;;;;;;;;19.02;26.17;101757.03;5091403;28;1192;-86
2022/03/20 14:01:30;;;;;;;;;;;;;;;18.18;26.51;101750.72;5094758;28;1369;-87
2022/03/20 14:03:55;;;;;;;;;;;;;;;17.12;27.85;101763.16;5096207;28;1326;-86
2022/03/20 14:06:21;;;;;;;;;;;;;;;16.95;28.99;101758.91;5096474;28;1365;-86
2022/03/20 14:08:51;;;;;;;;;;;;;;;16.35;29.73;101754.75;5096343;28;1652;-86
2022/03/20 14:11:31;;;;;;;;;;;;;;;15.92;30.35;101756.44;5083852;28;1377;-87
2022/03/20 14:13:57;;;;;;;;;;;;;;;16.92;29.01;101765.06;5080730;28;1857;-86
2022/03/20 14:16:22;;;;;;;;;;;;;;;16.90;29.50;101755.38;5114073;28;1960;-86
2022/03/20 14:18:47;;;;;;;;;;;;;;;18.58;27.86;101746.47;5089200;28;1673;-86
2022/03/20 14:21:12;;;;;;;;;;;;;;;18.80;26.61;101740.22;5085221;28;1308;-86
2022/03/20 14:23:57;;;;;;;;;;;;;;;19.09;26.85;101751.06;5083768;28;1424;-86
2022/03/20 14:26:23;;;;;;;;;;;;;;;16.75;28.62;101742.56;5090277;28;1445;-86
2022/03/20 14:29:08;;;;;;;;;;;;;;;15.89;30.58;101740.44;5095831;28;1295;-86